Time;durP1;ratioP1;P1;durP2;ratioP2;P2;SDS_P1;SDS_P2;PMS_P1;PMS_P2;Temp;Humidity;BMP_temperature;BMP_pressure;BME280_temperature;BME280_humidity;BME280_pressure;Samples;Min_cycle;Max_cycle;Signal;HPM_P1;HPM_P2
2022/05/19 00:02:03;;;;;;;3.67;3.27;;;15.40;92.40;;;;;;4970173;28;20031;-84
2022/05/19 00:04:29;;;;;;;5.10;3.05;;;15.40;92.40;;;;;;4959404;28;20429;-83
2022/05/19 00:06:55;;;;;;;3.53;3.10;;;15.40;92.80;;;;;;5003092;28;20026;-82
2022/05/19 00:09:22;;;;;;;3.60;3.30;;;15.30;92.80;;;;;;4975382;28;20604;-83
2022/05/19 00:11:48;;;;;;;5.10;3.17;;;15.30;93.00;;;;;;4985076;28;20038;-82
2022/05/19 00:14:15;;;;;;;5.53;3.13;;;15.20;93.90;;;;;;4992659;28;20489;-83
2022/05/19 00:16:41;;;;;;;3.88;3.05;;;15.10;93.90;;;;;;4961857;28;20043;-83
2022/05/19 00:19:07;;;;;;;3.92;3.47;;;15.10;94.40;;;;;;4996658;28;20091;-83
2022/05/19 00:21:33;;;;;;;3.58;3.28;;;15.00;93.60;;;;;;4990840;28;20034;-83
2022/05/19 00:23:59;;;;;;;3.47;3.05;;;14.90;94.30;;;;;;4976626;28;20045;-83
2022/05/19 00:26:25;;;;;;;2.95;2.75;;;14.90;95.00;;;;;;4962177;28;20027;-83
2022/05/19 00:28:51;;;;;;;4.28;3.20;;;14.90;95.10;;;;;;4995089;28;20030;-83
2022/05/19 00:31:17;;;;;;;5.35;3.40;;;14.80;95.00;;;;;;4981821;28;20023;-83
2022/05/19 00:33:43;;;;;;;4.47;3.30;;;14.80;94.90;;;;;;4994372;28;20464;-83
2022/05/19 00:36:17;;;;;;;3.50;3.20;;;14.80;95.00;;;;;;4978700;28;20030;-83
2022/05/19 00:38:43;;;;;;;4.32;3.40;;;14.70;95.20;;;;;;4989955;28;20436;-83
2022/05/19 00:41:10;;;;;;;3.85;3.05;;;14.70;95.50;;;;;;4991545;28;20027;-83
2022/05/19 00:43:42;;;;;;;4.40;3.10;;;14.60;95.90;;;;;;4963766;28;20060;-84
2022/05/19 00:46:15;;;;;;;3.45;2.92;;;14.50;96.10;;;;;;4957333;28;20185;-83
2022/05/19 00:48:43;;;;;;;4.25;3.40;;;14.50;96.50;;;;;;4988519;28;20125;-83
2022/05/19 00:51:10;;;;;;;3.47;3.17;;;14.50;96.80;;;;;;5002486;28;20030;-83
2022/05/19 00:53:39;;;;;;;3.92;3.33;;;14.50;96.90;;;;;;4975525;28;20076;-83
2022/05/19 00:56:22;;;;;;;4.18;3.13;;;14.40;97.40;;;;;;4989028;28;20207;-83
2022/05/19 00:59:05;;;;;;;4.07;3.67;;;14.40;96.80;;;;;;4987992;28;20034;-83
2022/05/19 01:01:33;;;;;;;3.35;3.05;;;14.30;97.30;;;;;;4987623;28;20027;-83
2022/05/19 01:04:06;;;;;;;4.93;3.40;;;14.30;97.40;;;;;;4972038;28;20672;-83
2022/05/19 01:06:34;;;;;;;3.85;3.45;;;14.30;98.00;;;;;;4981469;28;20089;-84
2022/05/19 01:09:05;;;;;;;3.92;3.53;;;14.20;98.20;;;;;;4991298;28;20114;-84
2022/05/19 01:11:31;;;;;;;4.13;3.33;;;14.20;98.60;;;;;;5005628;28;20037;-83
2022/05/19 01:13:58;;;;;;;3.85;3.47;;;14.20;99.00;;;;;;5001203;28;20120;-83
2022/05/19 01:16:24;;;;;;;5.50;3.13;;;14.10;99.20;;;;;;4994589;28;20113;-82
2022/05/19 01:18:50;;;;;;;5.75;3.25;;;14.10;99.40;;;;;;4993194;28;20384;-83
2022/05/19 01:21:19;;;;;;;5.00;3.10;;;14.10;99.60;;;;;;4962289;28;20038;-82
2022/05/19 01:24:07;;;;;;;3.45;3.15;;;14.00;99.60;;;;;;4954283;28;20022;-83
2022/05/19 01:26:47;;;;;;;3.42;3.13;;;14.00;99.90;;;;;;4995585;28;20061;-83
2022/05/19 01:29:15;;;;;;;4.15;3.65;;;14.00;99.90;;;;;;4985193;28;20085;-83
2022/05/19 01:31:55;;;;;;;4.85;3.50;;;14.00;99.90;;;;;;4984670;28;20037;-82
2022/05/19 01:34:28;;;;;;;7.20;3.28;;;14.00;99.70;;;;;;4989254;28;20030;-84
2022/05/19 01:36:57;;;;;;;3.38;3.08;;;14.10;99.50;;;;;;4978226;28;20076;-84
2022/05/19 01:39:30;;;;;;;5.38;3.60;;;14.10;99.50;;;;;;4996681;28;20037;-84
2022/05/19 01:42:15;;;;;;;6.13;3.55;;;14.10;99.70;;;;;;4967729;28;20038;-84
2022/05/19 01:44:50;;;;;;;4.40;3.42;;;14.10;99.90;;;;;;4989181;28;20023;-83
2022/05/19 01:47:33;;;;;;;6.47;3.78;;;14.10;99.90;;;;;;4993288;28;20484;-84
2022/05/19 01:50:23;;;;;;;4.32;3.50;;;14.10;99.90;;;;;;4995653;28;20022;-83
2022/05/19 01:52:52;;;;;;;3.70;3.35;;;14.00;99.90;;;;;;5000156;28;20046;-83
2022/05/19 01:55:35;;;;;;;4.00;3.40;;;13.90;99.90;;;;;;4972104;28;20409;-84
2022/05/19 01:58:28;;;;;;;3.30;2.95;;;13.90;99.90;;;;;;4988543;28;20058;-83
2022/05/19 02:00:58;;;;;;;4.72;3.83;;;13.80;99.90;;;;;;4993228;28;20545;-84
2022/05/19 02:03:52;;;;;;;4.93;3.65;;;13.80;99.90;;;;;;5008431;28;20065;-84
2022/05/19 02:06:23;;;;;;;5.10;3.58;;;13.70;99.90;;;;;;4979005;28;20030;-83
2022/05/19 02:08:55;;;;;;;5.85;3.47;;;13.70;99.90;;;;;;4996443;28;20080;-83
2022/05/19 02:11:31;;;;;;;3.67;3.33;;;13.70;99.90;;;;;;4966633;28;20093;-83
2022/05/19 02:14:00;;;;;;;5.07;3.40;;;13.70;99.90;;;;;;4956515;28;20469;-83
2022/05/19 02:16:30;;;;;;;3.40;3.10;;;13.70;99.90;;;;;;4987609;28;20442;-83
2022/05/19 02:18:57;;;;;;;4.78;3.35;;;13.70;99.90;;;;;;4955705;28;20030;-83
2022/05/19 02:21:24;;;;;;;4.63;3.58;;;13.60;99.90;;;;;;4984849;28;20019;-83
2022/05/19 02:23:50;;;;;;;4.18;3.42;;;13.60;99.90;;;;;;4974322;28;20430;-83
2022/05/19 02:26:16;;;;;;;4.03;2.92;;;13.60;99.90;;;;;;4994566;28;20041;-83
2022/05/19 02:28:47;;;;;;;3.15;2.95;;;13.50;99.90;;;;;;4964474;28;20031;-83
2022/05/19 02:31:13;;;;;;;3.67;3.38;;;13.50;99.90;;;;;;4970306;28;20030;-83
2022/05/19 02:33:38;;;;;;;4.30;3.38;;;13.50;99.90;;;;;;4977904;28;20137;-83
2022/05/19 02:36:05;;;;;;;4.90;3.00;;;13.40;99.90;;;;;;4943459;28;20100;-83
2022/05/19 02:38:31;;;;;;;3.53;3.22;;;13.40;99.90;;;;;;4927177;28;20043;-83
2022/05/19 02:40:56;;;;;;;4.07;3.40;;;13.40;99.90;;;;;;4933217;28;20504;-83
2022/05/19 02:43:22;;;;;;;3.72;3.20;;;13.40;99.90;;;;;;4968368;28;20034;-81
2022/05/19 02:45:49;;;;;;;3.70;3.03;;;13.30;99.90;;;;;;4983441;28;20033;-83
2022/05/19 02:48:16;;;;;;;3.47;3.00;;;13.30;99.90;;;;;;5000175;28;20034;-83
2022/05/19 02:50:44;;;;;;;4.50;3.65;;;13.30;99.90;;;;;;4967443;28;20109;-82
2022/05/19 02:53:13;;;;;;;3.75;3.35;;;13.20;99.90;;;;;;4997134;28;20030;-83
2022/05/19 02:55:42;;;;;;;3.83;3.30;;;13.20;99.90;;;;;;4992009;28;20030;-83
2022/05/19 02:58:09;;;;;;;3.90;3.30;;;13.20;99.90;;;;;;4993810;28;20052;-82
2022/05/19 03:00:36;;;;;;;3.70;2.95;;;13.20;99.90;;;;;;4983587;28;20121;-83
2022/05/19 03:03:02;;;;;;;3.45;3.15;;;13.10;99.90;;;;;;4991954;28;20576;-83
2022/05/19 03:05:30;;;;;;;4.93;3.95;;;13.10;99.90;;;;;;4990839;28;20034;-83
2022/05/19 03:07:56;;;;;;;5.15;3.25;;;13.10;99.90;;;;;;4991452;28;20033;-84
2022/05/19 03:10:22;;;;;;;7.22;3.67;;;13.10;99.90;;;;;;4992787;28;20035;-83
2022/05/19 03:12:48;;;;;;;3.50;3.20;;;13.10;99.90;;;;;;4975663;28;20042;-83
2022/05/19 03:15:14;;;;;;;4.07;3.65;;;13.00;99.90;;;;;;4991846;28;20038;-83
2022/05/19 03:17:41;;;;;;;7.30;3.65;;;13.00;99.90;;;;;;4993971;28;20031;-83
2022/05/19 03:20:08;;;;;;;3.85;3.40;;;13.00;99.90;;;;;;5005876;28;20088;-83
2022/05/19 03:22:34;;;;;;;4.32;3.42;;;13.00;99.90;;;;;;4965080;28;20038;-83
2022/05/19 03:24:59;;;;;;;5.15;3.47;;;13.00;99.90;;;;;;4959264;28;20037;-82
2022/05/19 03:27:25;;;;;;;3.90;3.30;;;12.90;99.90;;;;;;4982972;28;20069;-83
2022/05/19 03:29:52;;;;;;;4.85;3.08;;;12.90;99.90;;;;;;4979457;28;20037;-83
2022/05/19 03:32:19;;;;;;;3.97;3.38;;;12.90;99.90;;;;;;4979091;28;20041;-83
2022/05/19 03:34:44;;;;;;;3.63;3.28;;;12.90;99.90;;;;;;4991398;28;20077;-83
2022/05/19 03:37:11;;;;;;;4.00;3.58;;;12.80;99.90;;;;;;4973643;28;20440;-83
2022/05/19 03:39:37;;;;;;;3.53;3.22;;;12.80;99.90;;;;;;4967391;28;20038;-83
2022/05/19 03:42:05;;;;;;;4.22;3.75;;;12.80;99.90;;;;;;4988641;28;20034;-82
2022/05/19 03:44:31;;;;;;;4.53;3.80;;;12.80;99.90;;;;;;4976236;28;20030;-83
2022/05/19 03:46:56;;;;;;;3.95;3.35;;;12.80;99.90;;;;;;4977246;28;20444;-83
2022/05/19 03:49:22;;;;;;;5.07;3.80;;;12.80;99.90;;;;;;4987720;28;20034;-83
2022/05/19 03:51:48;;;;;;;3.72;3.42;;;12.70;99.90;;;;;;4955505;28;20655;-83
2022/05/19 03:54:14;;;;;;;4.75;3.33;;;12.80;99.90;;;;;;4970529;28;20042;-83
2022/05/19 03:56:40;;;;;;;3.70;3.30;;;12.80;99.90;;;;;;4982027;28;20512;-83
2022/05/19 03:59:06;;;;;;;4.70;4.30;;;12.80;99.90;;;;;;4988666;28;20030;-83
2022/05/19 04:01:32;;;;;;;4.00;3.70;;;12.80;99.90;;;;;;4965902;28;20042;-83
2022/05/19 04:03:59;;;;;;;6.90;3.72;;;12.80;99.90;;;;;;4974423;28;20552;-84
2022/05/19 04:06:28;;;;;;;4.25;3.80;;;12.80;99.90;;;;;;5001844;28;20075;-83
2022/05/19 04:08:54;;;;;;;5.18;3.50;;;12.80;99.90;;;;;;4996205;28;20026;-83
2022/05/19 04:11:19;;;;;;;3.92;3.53;;;12.90;99.90;;;;;;4965775;28;20034;-83
2022/05/19 04:13:45;;;;;;;4.03;3.63;;;12.90;99.90;;;;;;4990804;28;20436;-83
2022/05/19 04:16:11;;;;;;;6.25;3.83;;;12.90;99.90;;;;;;4962475;28;20022;-83
2022/05/19 04:18:38;;;;;;;4.07;3.63;;;12.90;99.90;;;;;;4977061;28;20068;-83
2022/05/19 04:21:04;;;;;;;8.65;5.47;;;12.90;99.90;;;;;;4997923;28;20022;-83
2022/05/19 04:23:30;;;;;;;4.70;3.95;;;12.90;99.90;;;;;;4974589;28;20041;-84
2022/05/19 04:25:56;;;;;;;5.53;4.25;;;12.90;99.90;;;;;;4979991;28;20420;-83
2022/05/19 04:28:23;;;;;;;6.95;5.07;;;12.90;99.90;;;;;;4990530;28;20030;-83
2022/05/19 04:30:50;;;;;;;5.38;4.57;;;12.90;99.90;;;;;;5005638;28;20109;-84
2022/05/19 04:33:16;;;;;;;4.32;3.80;;;12.90;99.90;;;;;;5000793;28;20523;-83
2022/05/19 04:35:42;;;;;;;4.30;3.90;;;13.00;99.90;;;;;;4958079;28;20481;-83
2022/05/19 04:38:11;;;;;;;9.07;4.05;;;13.00;99.90;;;;;;4963782;28;20112;-83
2022/05/19 04:40:43;;;;;;;5.63;3.83;;;13.10;99.90;;;;;;4959538;28;20031;-83
2022/05/19 04:43:10;;;;;;;6.40;3.95;;;13.10;99.90;;;;;;4979314;28;20084;-83
2022/05/19 04:45:36;;;;;;;6.32;4.38;;;13.20;99.90;;;;;;4990477;28;20027;-83
2022/05/19 04:48:02;;;;;;;6.78;3.72;;;13.30;99.90;;;;;;4966086;28;20046;-82
2022/05/19 04:50:29;;;;;;;6.15;4.13;;;13.30;99.90;;;;;;4996889;28;20096;-83
2022/05/19 04:52:58;;;;;;;4.72;4.32;;;13.30;99.90;;;;;;4976047;28;20042;-84
2022/05/19 04:55:27;;;;;;;4.88;4.40;;;13.40;99.90;;;;;;4971981;28;20421;-83
2022/05/19 04:57:53;;;;;;;6.80;4.38;;;13.50;99.90;;;;;;4989291;28;20038;-83
2022/05/19 05:00:21;;;;;;;4.93;3.97;;;13.50;99.90;;;;;;4989801;28;20037;-83
2022/05/19 05:02:47;;;;;;;4.80;4.30;;;13.70;99.90;;;;;;4975732;28;20033;-83
2022/05/19 05:05:12;;;;;;;5.03;4.40;;;13.80;99.90;;;;;;4981069;28;20488;-84
2022/05/19 05:07:38;;;;;;;4.60;4.20;;;13.90;99.90;;;;;;4984896;28;20034;-84
2022/05/19 05:10:05;;;;;;;5.38;4.00;;;14.10;99.90;;;;;;4971561;28;20134;-83
2022/05/19 05:12:30;;;;;;;4.32;3.85;;;14.20;99.90;;;;;;4969408;28;20489;-83
2022/05/19 05:14:56;;;;;;;4.50;4.10;;;14.30;99.90;;;;;;4974205;28;20049;-83
2022/05/19 05:17:22;;;;;;;5.38;4.43;;;14.40;99.90;;;;;;4975341;28;20038;-83
2022/05/19 05:19:48;;;;;;;5.30;4.32;;;14.60;99.90;;;;;;4982572;28;20120;-83
2022/05/19 05:22:15;;;;;;;6.03;4.90;;;14.70;99.90;;;;;;4973208;28;20025;-83
2022/05/19 05:24:40;;;;;;;4.20;3.80;;;14.80;99.90;;;;;;4956020;28;20404;-81
2022/05/19 05:27:06;;;;;;;5.30;4.35;;;15.00;99.90;;;;;;4998867;28;20112;-84
2022/05/19 05:29:34;;;;;;;3.92;3.42;;;15.20;99.90;;;;;;4957768;28;20508;-82
2022/05/19 05:32:00;;;;;;;4.57;3.92;;;15.50;99.90;;;;;;4957494;28;20034;-83
2022/05/19 05:34:26;;;;;;;4.25;3.70;;;15.80;99.90;;;;;;4960792;28;20042;-83
2022/05/19 05:36:52;;;;;;;3.88;3.38;;;16.10;99.90;;;;;;4986637;28;20125;-84
2022/05/19 05:39:18;;;;;;;4.45;3.70;;;16.40;99.90;;;;;;4992642;28;20454;-83
2022/05/19 05:41:44;;;;;;;3.92;3.50;;;16.80;99.90;;;;;;4966082;28;20042;-84
2022/05/19 05:44:09;;;;;;;4.13;3.47;;;17.10;98.60;;;;;;4957122;28;20038;-83
2022/05/19 05:46:35;;;;;;;3.90;3.50;;;17.30;98.80;;;;;;4964112;28;20172;-83
2022/05/19 05:49:01;;;;;;;6.47;4.03;;;17.70;99.80;;;;;;4972674;28;20034;-84
2022/05/19 05:51:27;;;;;;;3.28;2.97;;;18.10;97.50;;;;;;4973120;28;20033;-83
2022/05/19 05:53:54;;;;;;;5.03;3.40;;;18.50;98.80;;;;;;4962560;28;20496;-84
2022/05/19 05:56:20;;;;;;;5.38;3.63;;;18.80;98.30;;;;;;4983359;28;20041;-83
2022/05/19 05:58:46;;;;;;;3.80;3.17;;;19.20;97.50;;;;;;4972553;28;20038;-82
2022/05/19 06:01:18;;;;;;;3.58;3.28;;;19.40;96.30;;;;;;4983637;28;20108;-83
2022/05/19 06:03:45;;;;;;;4.47;3.80;;;19.70;95.60;;;;;;4972586;28;20155;-82
2022/05/19 06:06:11;;;;;;;8.57;4.03;;;19.80;92.00;;;;;;4985832;28;20077;-82
2022/05/19 06:08:41;;;;;;;3.50;3.20;;;19.90;92.50;;;;;;4972359;28;20116;-83
2022/05/19 06:11:07;;;;;;;4.05;3.30;;;19.90;90.90;;;;;;4972630;28;20031;-83
2022/05/19 06:13:33;;;;;;;5.45;3.30;;;19.90;90.60;;;;;;4988657;28;20035;-83
2022/05/19 06:15:59;;;;;;;4.30;3.60;;;20.00;91.20;;;;;;4957926;28;20409;-83
2022/05/19 06:18:28;;;;;;;4.20;3.35;;;19.90;90.10;;;;;;4995581;28;20063;-83
2022/05/19 06:20:55;;;;;;;3.63;3.17;;;19.80;89.50;;;;;;4980206;28;20038;-83
2022/05/19 06:23:21;;;;;;;3.85;3.13;;;19.80;87.70;;;;;;4988564;28;20042;-83
2022/05/19 06:25:47;;;;;;;3.80;3.25;;;19.70;88.00;;;;;;4957986;28;20480;-83
2022/05/19 06:28:13;;;;;;;3.40;3.10;;;19.80;90.00;;;;;;4982264;28;20093;-83
2022/05/19 06:30:39;;;;;;;4.80;2.92;;;20.10;87.90;;;;;;4975778;28;20026;-82
2022/05/19 06:33:05;;;;;;;3.83;3.17;;;20.20;85.20;;;;;;4972635;28;20442;-82
2022/05/19 06:35:33;;;;;;;4.18;2.80;;;20.30;87.20;;;;;;4994515;28;20038;-84
2022/05/19 06:37:59;;;;;;;5.47;3.28;;;20.50;86.00;;;;;;4970703;28;20035;-84
2022/05/19 06:40:26;;;;;;;3.15;2.83;;;20.70;85.70;;;;;;4954413;28;20133;-83
2022/05/19 06:42:53;;;;;;;3.55;3.17;;;20.70;83.30;;;;;;4948239;28;20631;-84
2022/05/19 06:45:22;;;;;;;6.53;4.60;;;20.60;83.40;;;;;;4979828;28;20076;-81
2022/05/19 06:47:49;;;;;;;3.35;3.00;;;20.70;85.70;;;;;;4975152;28;20401;-85
2022/05/19 06:50:15;;;;;;;3.28;2.97;;;20.90;85.10;;;;;;4996290;28;20125;-85
2022/05/19 06:52:44;;;;;;;3.80;3.05;;;21.20;84.20;;;;;;4967698;28;20038;-83
2022/05/19 06:55:11;;;;;;;3.50;3.20;;;21.20;79.50;;;;;;4983379;28;20035;-83
2022/05/19 06:57:37;;;;;;;3.30;3.00;;;21.10;79.60;;;;;;4990062;28;20034;-86
2022/05/19 07:00:04;;;;;;;3.65;3.08;;;21.30;77.90;;;;;;4972311;28;20125;-82
2022/05/19 07:02:30;;;;;;;4.15;2.50;;;21.10;78.00;;;;;;4969942;28;20549;-84
2022/05/19 07:04:56;;;;;;;3.00;2.70;;;21.20;78.10;;;;;;4964012;28;20026;-83
2022/05/19 07:07:21;;;;;;;4.75;2.42;;;21.40;78.90;;;;;;4973654;28;20033;-82
2022/05/19 07:09:47;;;;;;;4.43;2.88;;;21.40;79.30;;;;;;4974809;28;20508;-84
2022/05/19 07:12:20;;;;;;;6.93;3.00;;;21.50;79.10;;;;;;4958536;28;20038;-83
2022/05/19 07:14:45;;;;;;;4.35;2.90;;;21.70;78.00;;;;;;4982917;28;20042;-82
2022/05/19 07:17:13;;;;;;;3.05;2.85;;;21.80;80.40;;;;;;4970082;28;20058;-84
2022/05/19 07:22:24;;;;;;;3.63;3.30;;;22.60;80.20;;;;;;4954824;28;20687;-84
2022/05/19 07:24:51;;;;;;;3.13;2.53;;;22.90;72.90;;;;;;4981601;28;20065;-82
2022/05/19 07:27:17;;;;;;;4.50;2.30;;;22.90;70.00;;;;;;4986840;28;20026;-84
2022/05/19 07:29:43;;;;;;;3.22;2.67;;;22.90;67.60;;;;;;4985151;28;20038;-83
2022/05/19 07:32:08;;;;;;;3.22;2.40;;;22.90;68.70;;;;;;4973591;28;20042;-84
2022/05/19 07:34:36;;;;;;;2.75;2.55;;;23.00;68.40;;;;;;4957669;28;20030;-84
2022/05/19 07:37:03;;;;;;;2.70;2.50;;;22.70;67.90;;;;;;4959954;28;20050;-85
2022/05/19 07:39:29;;;;;;;3.85;2.30;;;22.90;68.20;;;;;;4964023;28;20203;-83
2022/05/19 07:41:56;;;;;;;2.58;2.38;;;23.00;66.00;;;;;;4992975;28;20529;-83
2022/05/19 07:44:27;;;;;;;2.63;2.05;;;23.20;67.70;;;;;;4969975;28;20121;-84
2022/05/19 07:46:53;;;;;;;3.45;2.42;;;23.30;66.50;;;;;;4993495;28;20026;-84
2022/05/19 07:49:19;;;;;;;2.50;2.30;;;23.20;63.50;;;;;;4987524;28;20033;-84
2022/05/19 07:51:45;;;;;;;2.40;2.20;;;23.10;65.90;;;;;;4975136;28;20595;-83
2022/05/19 07:54:18;;;;;;;3.15;1.88;;;23.30;68.60;;;;;;4991304;28;20039;-84
2022/05/19 07:56:45;;;;;;;2.40;2.20;;;23.50;63.90;;;;;;4979881;28;20048;-85
2022/05/19 07:59:11;;;;;;;9.43;5.03;;;23.60;62.90;;;;;;4967081;28;20504;-84
2022/05/19 08:01:40;;;;;;;4.22;2.60;;;23.70;64.00;;;;;;4950152;28;20036;-86
2022/05/19 08:04:07;;;;;;;7.75;2.83;;;23.70;62.80;;;;;;4962525;28;20026;-83
2022/05/19 08:06:33;;;;;;;2.70;2.35;;;23.70;63.20;;;;;;5005071;28;20022;-83
2022/05/19 08:09:00;;;;;;;2.47;2.28;;;23.80;65.10;;;;;;4979431;28;20030;-83
2022/05/19 08:11:29;;;;;;;2.70;2.50;;;23.50;63.90;;;;;;4987395;28;20035;-84
2022/05/19 08:16:40;;;;;;;2.80;2.45;;;23.60;65.30;;;;;;4953522;28;20045;-84
2022/05/19 08:19:05;;;;;;;4.15;2.50;;;23.60;65.90;;;;;;4976605;28;20023;-84
2022/05/19 08:21:31;;;;;;;2.30;2.10;;;23.60;66.10;;;;;;4990617;28;20057;-84
2022/05/19 08:23:58;;;;;;;2.22;2.03;;;23.70;66.50;;;;;;4974327;28;20018;-85
2022/05/19 08:26:23;;;;;;;4.18;2.33;;;23.70;65.00;;;;;;4990925;28;20049;-84
2022/05/19 08:28:50;;;;;;;4.43;2.40;;;23.60;65.00;;;;;;4979327;28;20061;-85
2022/05/19 08:31:20;;;;;;;2.95;2.63;;;23.50;65.40;;;;;;4990456;28;20030;-83
2022/05/19 08:33:47;;;;;;;2.60;2.33;;;23.50;64.40;;;;;;4989361;28;20034;-83
2022/05/19 08:36:13;;;;;;;3.38;2.35;;;23.40;65.80;;;;;;4981956;28;20053;-85
2022/05/19 08:38:40;;;;;;;4.65;2.38;;;23.40;66.00;;;;;;4989881;28;20037;-85
2022/05/19 08:41:08;;;;;;;4.82;2.28;;;23.40;65.00;;;;;;4994703;28;20036;-84
2022/05/19 08:43:45;;;;;;;4.60;2.40;;;23.30;66.40;;;;;;4978310;28;20034;-86
2022/05/19 08:46:19;;;;;;;3.90;2.00;;;23.30;65.00;;;;;;4978607;28;20026;-86
2022/05/19 08:48:53;;;;;;;3.25;2.40;;;23.20;64.70;;;;;;4989728;28;20125;-84
2022/05/19 08:51:22;;;;;;;3.10;2.40;;;23.00;63.20;;;;;;4959093;28;20044;-84
2022/05/19 08:53:47;;;;;;;4.72;2.92;;;23.00;63.60;;;;;;4988129;28;20037;-85
2022/05/19 08:56:31;;;;;;;2.20;2.00;;;23.00;65.40;;;;;;4998496;28;20710;-85
2022/05/19 08:59:05;;;;;;;3.97;1.90;;;23.10;64.30;;;;;;5000962;28;20038;-85
2022/05/19 09:01:53;;;;;;;5.67;4.70;;;23.10;66.80;;;;;;4982711;28;20031;-83
2022/05/19 09:04:43;;;;;;;6.25;2.28;;;23.20;66.20;;;;;;4979607;28;20693;-87
2022/05/19 09:10:44;;;;;;;3.42;2.20;;;23.20;67.00;;;;;;4973269;28;20026;-84
2022/05/19 09:13:28;;;;;;;3.03;2.13;;;23.20;67.00;;;;;;4990305;28;20030;-85
2022/05/19 09:15:55;;;;;;;3.78;2.20;;;23.30;67.10;;;;;;4987807;28;20026;-85
2022/05/19 09:18:34;;;;;;;7.10;2.22;;;23.40;66.60;;;;;;4980061;28;20042;-84
2022/05/19 09:21:03;;;;;;;2.40;2.20;;;23.50;67.40;;;;;;4999253;28;20089;-86
2022/05/19 09:23:29;;;;;;;6.45;2.08;;;23.50;65.80;;;;;;4972917;28;20037;-84
2022/05/19 09:26:11;;;;;;;4.20;2.35;;;23.60;64.60;;;;;;4960470;28;20413;-85
2022/05/19 09:28:38;;;;;;;2.13;1.90;;;23.40;65.50;;;;;;4994765;28;20699;-85
2022/05/19 09:31:03;;;;;;;2.58;2.20;;;23.60;66.00;;;;;;4960949;28;20121;-85
2022/05/19 09:33:37;;;;;;;2.60;2.20;;;23.60;64.40;;;;;;4968453;28;20058;-84
2022/05/19 09:36:11;;;;;;;3.33;2.10;;;23.50;62.40;;;;;;4965644;28;20034;-84
2022/05/19 09:38:55;;;;;;;3.17;1.90;;;23.40;62.60;;;;;;4947382;28;20482;-86
2022/05/19 09:41:27;;;;;;;3.47;2.10;;;23.40;62.50;;;;;;4954535;28;20049;-85
2022/05/19 09:43:56;;;;;;;4.75;1.90;;;23.60;67.10;;;;;;4941003;28;20031;-85
2022/05/19 09:46:22;;;;;;;5.40;2.08;;;23.70;66.00;;;;;;4985152;28;20026;-85
2022/05/19 09:48:57;;;;;;;2.88;1.70;;;23.80;62.60;;;;;;4985371;28;20031;-83
2022/05/19 09:51:31;;;;;;;3.10;1.90;;;23.90;61.80;;;;;;4989477;28;20030;-85
2022/05/19 09:53:59;;;;;;;3.70;2.20;;;23.90;62.20;;;;;;4995304;28;20563;-87
2022/05/19 09:56:37;;;;;;;4.63;2.13;;;23.90;63.70;;;;;;4976560;28;20535;-85
2022/05/19 09:59:19;;;;;;;4.30;2.10;;;23.90;61.00;;;;;;4984964;28;20057;-85
2022/05/19 10:01:47;;;;;;;2.50;2.20;;;23.70;62.80;;;;;;4995020;28;20056;-84
2022/05/19 10:04:18;;;;;;;2.95;2.05;;;23.80;67.00;;;;;;4929216;28;20054;-83
2022/05/19 10:06:54;;;;;;;2.30;2.10;;;23.90;62.50;;;;;;4994541;28;20132;-88
2022/05/19 10:09:28;;;;;;;2.53;1.95;;;24.00;63.00;;;;;;4968885;28;20069;-85
2022/05/19 10:12:01;;;;;;;2.88;2.00;;;24.00;65.90;;;;;;4968697;28;20032;-85
2022/05/19 10:14:32;;;;;;;4.40;1.85;;;24.10;63.20;;;;;;4938487;28;20110;-86
2022/05/19 10:17:04;;;;;;;2.70;2.33;;;24.00;62.10;;;;;;4953935;28;20034;-85
2022/05/19 10:19:56;;;;;;;2.55;1.80;;;24.00;62.40;;;;;;4989680;28;20030;-85
2022/05/19 10:22:43;;;;;;;7.20;2.08;;;24.10;63.90;;;;;;4970334;28;20026;-85
2022/05/19 10:25:34;;;;;;;3.20;1.85;;;24.20;63.50;;;;;;4968479;28;20031;-85
2022/05/19 10:31:43;;;;;;;2.35;2.15;;;24.20;62.40;;;;;;4927762;28;20214;-87
2022/05/19 10:34:30;;;;;;;2.90;2.20;;;24.20;61.90;;;;;;4985661;28;20053;-85
2022/05/19 10:37:27;;;;;;;2.28;2.08;;;24.20;64.00;;;;;;4996590;28;20036;-85
2022/05/19 10:39:58;;;;;;;2.83;2.45;;;24.30;62.30;;;;;;4975610;28;20096;-86
2022/05/19 10:42:48;;;;;;;5.72;2.30;;;24.40;65.00;;;;;;4990164;28;20037;-86
2022/05/19 10:45:27;;;;;;;1.83;1.73;;;24.50;61.70;;;;;;4990563;28;20023;-84
2022/05/19 10:48:17;;;;;;;1.95;1.85;;;24.60;60.40;;;;;;4984600;28;20035;-85
2022/05/19 10:51:12;;;;;;;2.70;2.17;;;24.70;61.60;;;;;;4974570;28;20076;-84
2022/05/19 10:53:50;;;;;;;3.63;2.10;;;24.90;60.80;;;;;;4988886;28;20081;-86
2022/05/19 10:56:46;;;;;;;3.45;1.80;;;25.00;61.30;;;;;;4993182;28;20397;-86
2022/05/19 10:59:30;;;;;;;3.42;2.15;;;25.10;60.00;;;;;;4981380;28;20036;-84
2022/05/19 11:02:16;;;;;;;5.35;2.50;;;25.20;60.60;;;;;;4987402;28;20088;-83
2022/05/19 11:05:08;;;;;;;2.35;1.98;;;25.20;61.80;;;;;;4975030;28;20034;-85
2022/05/19 11:07:49;;;;;;;1.80;1.63;;;25.30;66.10;;;;;;4984450;28;20091;-86
2022/05/19 11:10:27;;;;;;;2.38;1.60;;;25.50;61.90;;;;;;4976962;28;20057;-85
2022/05/19 11:13:26;;;;;;;1.85;1.70;;;25.70;61.50;;;;;;4954029;28;20068;-86
2022/05/19 11:16:15;;;;;;;3.35;2.42;;;25.80;60.10;;;;;;4973655;28;20033;-86
2022/05/19 11:19:04;;;;;;;2.38;1.73;;;26.00;57.30;;;;;;4992856;28;20036;-84
2022/05/19 11:21:54;;;;;;;2.00;1.63;;;26.00;55.90;;;;;;4971734;28;20070;-87
2022/05/19 11:27:40;;;;;;;2.63;1.98;;;26.20;58.80;;;;;;4975128;28;20069;-86
2022/05/19 11:30:12;;;;;;;1.80;1.70;;;26.40;58.80;;;;;;5001670;28;20579;-87
2022/05/19 11:32:38;;;;;;;2.00;1.80;;;26.30;55.00;;;;;;4976506;28;20037;-87
2022/05/19 11:35:22;;;;;;;3.40;1.60;;;26.30;56.90;;;;;;4975751;28;20034;-85
2022/05/19 11:37:54;;;;;;;1.85;1.50;;;26.30;57.40;;;;;;4982571;28;20057;-86
2022/05/19 11:40:57;;;;;;;3.10;1.60;;;26.40;60.10;;;;;;4974567;28;20053;-86
2022/05/19 11:43:32;;;;;;;1.83;1.70;;;26.60;58.60;;;;;;4970086;28;20046;-85
2022/05/19 11:46:04;;;;;;;;;;;26.70;52.80;;;;;;4992762;28;20034;-85
2022/05/19 11:55:13;;;;;;;2.30;1.95;;;26.90;55.80;;;;;;4992421;28;20066;-85
2022/05/19 11:58:04;;;;;;;2.00;1.77;;;27.10;53.50;;;;;;4983267;28;20142;-88
2022/05/19 12:00:46;;;;;;;5.65;2.70;;;27.00;53.00;;;;;;4961088;28;20023;-86
2022/05/19 12:03:19;;;;;;;3.13;1.88;;;27.10;55.40;;;;;;4971855;28;20034;-86
2022/05/19 12:05:58;;;;;;;1.98;1.88;;;27.00;55.90;;;;;;4959617;28;20033;-86
2022/05/19 12:08:39;;;;;;;2.00;1.90;;;26.70;53.60;;;;;;4962362;28;20033;-85
2022/05/19 12:11:36;;;;;;;2.17;1.98;;;26.60;53.70;;;;;;4971737;28;20038;-87
2022/05/19 12:14:10;;;;;;;2.25;2.05;;;26.50;54.00;;;;;;4986327;28;20594;-87
2022/05/19 12:16:49;;;;;;;2.70;1.90;;;26.60;53.80;;;;;;4993143;28;20489;-84
2022/05/19 12:19:36;;;;;;;1.67;1.58;;;26.50;54.40;;;;;;4990426;28;20236;-85
2022/05/19 12:22:26;;;;;;;1.83;1.70;;;26.70;55.40;;;;;;4997008;28;20037;-87
2022/05/19 12:25:01;;;;;;;2.13;1.95;;;26.80;56.70;;;;;;4969306;28;20057;-83
2022/05/19 12:27:38;;;;;;;5.88;1.73;;;27.10;55.50;;;;;;4988846;28;20033;-85
2022/05/19 12:33:32;;;;;;;3.53;1.63;;;27.30;53.10;;;;;;4963028;28;20034;-87
2022/05/19 12:36:12;;;;;;;1.60;1.50;;;27.70;55.80;;;;;;4961234;28;20072;-86
2022/05/19 12:38:43;;;;;;;2.45;1.45;;;28.10;54.40;;;;;;4980619;28;20065;-85
2022/05/19 12:41:09;;;;;;;1.52;1.40;;;28.30;48.80;;;;;;4979399;28;20118;-86
2022/05/19 12:43:38;;;;;;;1.40;1.30;;;28.50;51.40;;;;;;4990365;28;20778;-87
2022/05/19 12:46:14;;;;;;;3.03;1.45;;;28.60;47.10;;;;;;4986413;28;20039;-86
2022/05/19 12:48:44;;;;;;;1.95;1.42;;;28.70;50.50;;;;;;4989591;28;20077;-83
2022/05/19 12:51:17;;;;;;;1.42;1.23;;;28.80;51.70;;;;;;4968475;28;20030;-86
2022/05/19 12:53:52;;;;;;;3.10;1.27;;;29.00;47.90;;;;;;4993170;28;20064;-86
2022/05/19 12:56:36;;;;;;;;;;;29.10;51.20;;;;;;4972818;28;20036;-85
2022/05/19 12:59:07;;;;;;;1.38;1.10;;;29.10;48.90;;;;;;4945436;28;20734;-86
2022/05/19 13:01:36;;;;;;;1.17;1.10;;;29.00;51.80;;;;;;4958672;28;20034;-87
2022/05/19 13:04:20;;;;;;;1.67;1.25;;;29.00;52.50;;;;;;4969301;28;20035;-84
2022/05/19 13:07:09;;;;;;;1.25;1.15;;;29.00;49.40;;;;;;4982204;28;20065;-84
2022/05/19 13:09:35;;;;;;;8.95;4.25;;;29.10;49.10;;;;;;4983493;28;20038;-86
2022/05/19 13:12:11;;;;;;;1.63;1.25;;;29.00;45.60;;;;;;4968268;28;20121;-86
2022/05/19 13:14:44;;;;;;;1.50;1.05;;;29.10;47.70;;;;;;5001338;28;20065;-84
2022/05/19 13:17:30;;;;;;;1.58;1.48;;;29.20;47.70;;;;;;4961836;28;20401;-84
2022/05/19 13:19:56;;;;;;;3.03;1.17;;;29.40;49.60;;;;;;4963009;28;20030;-86
2022/05/19 13:22:29;;;;;;;1.42;1.30;;;29.50;44.80;;;;;;4982497;28;20563;-85
2022/05/19 13:24:56;;;;;;;2.78;1.40;;;29.30;45.60;;;;;;4979267;28;20084;-87
2022/05/19 13:30:43;;;;;;;1.65;1.20;;;28.80;48.70;;;;;;4965689;28;20034;-84
2022/05/19 13:33:19;;;;;;;1.20;1.10;;;28.70;47.20;;;;;;4974694;28;20601;-86
2022/05/19 13:35:44;;;;;;;2.65;1.00;;;28.80;51.60;;;;;;4953795;28;20221;-87
2022/05/19 13:38:29;;;;;;;1.13;1.08;;;28.70;52.70;;;;;;4974026;28;20070;-86